createdAt,value
2022-10-25T00:00:00.204Z,3.6
2022-10-25T00:01:08.597Z,3.6
2022-10-25T00:02:16.953Z,3.6
2022-10-25T00:03:25.367Z,3.6
2022-10-25T00:04:33.696Z,3.6
2022-10-25T00:05:42.044Z,3.6
2022-10-25T00:06:50.550Z,3.9
2022-10-25T00:07:58.875Z,3.9
2022-10-25T00:09:07.201Z,3.9
2022-10-25T00:10:15.747Z,3.5
2022-10-25T00:11:24.059Z,3.5
2022-10-25T00:12:32.436Z,3.5
2022-10-25T00:13:40.926Z,3.4
2022-10-25T00:14:49.241Z,3.4
2022-10-25T00:15:57.548Z,3.4
2022-10-25T00:17:06.115Z,3.6
2022-10-25T00:18:14.442Z,3.6
2022-10-25T00:19:22.775Z,3.6
2022-10-25T00:20:31.298Z,3.5
2022-10-25T00:21:39.654Z,3.5
2022-10-25T00:22:48.163Z,3.5
2022-10-25T00:23:56.480Z,3.8
2022-10-25T00:25:04.814Z,3.8
2022-10-25T00:26:13.151Z,3.8
2022-10-25T00:27:21.681Z,3.7
2022-10-25T00:28:30.016Z,3.7
2022-10-25T00:29:38.333Z,3.7
2022-10-25T00:30:46.867Z,3.1
2022-10-25T00:31:55.186Z,3.1
2022-10-25T00:33:03.517Z,3.1
2022-10-25T00:34:12.053Z,2.6
2022-10-25T00:35:20.372Z,2.6
2022-10-25T00:36:28.694Z,2.6
2022-10-25T00:37:37.268Z,2.3
2022-10-25T00:38:45.534Z,2.3
2022-10-25T00:39:53.857Z,2.3
2022-10-25T00:41:02.397Z,2.3
2022-10-25T00:42:10.723Z,2.3
2022-10-25T00:43:19.033Z,2.3
2022-10-25T00:44:27.568Z,2.5
2022-10-25T00:45:35.902Z,2.5
2022-10-25T00:46:44.210Z,2.5
2022-10-25T00:47:52.726Z,2.1
2022-10-25T00:49:01.062Z,2.1
2022-10-25T00:50:09.404Z,2.1
2022-10-25T00:51:17.926Z,2.3
2022-10-25T00:52:26.263Z,2.3
2022-10-25T00:53:34.615Z,2.3
2022-10-25T00:54:43.108Z,2.3
2022-10-25T00:55:51.437Z,2.3
2022-10-25T00:56:59.776Z,2.3
2022-10-25T00:58:08.328Z,2.7
2022-10-25T00:59:16.638Z,2.7
2022-10-25T01:00:24.963Z,2.7
2022-10-25T01:01:33.626Z,2.4
2022-10-25T01:02:41.961Z,2.4
2022-10-25T01:03:50.183Z,2.4
2022-10-25T01:04:58.723Z,2.5
2022-10-25T01:06:07.057Z,2.5
2022-10-25T01:07:15.383Z,2.5
2022-10-25T01:08:23.921Z,2.7
2022-10-25T01:09:32.281Z,2.7
2022-10-25T01:10:40.578Z,2.7
2022-10-25T01:11:49.112Z,2.7
2022-10-25T01:12:57.682Z,2.7
2022-10-25T01:14:05.746Z,2.7
2022-10-25T01:15:14.298Z,2.8
2022-10-25T01:16:22.636Z,2.8
2022-10-25T01:17:30.936Z,2.8
2022-10-25T01:18:39.470Z,2.7
2022-10-25T01:19:47.798Z,2.7
2022-10-25T01:20:56.136Z,2.7
2022-10-25T01:22:04.711Z,2.8
2022-10-25T01:23:13.025Z,2.8
2022-10-25T01:24:21.341Z,2.8
2022-10-25T01:25:29.930Z,3.3
2022-10-25T01:26:38.208Z,3.3
2022-10-25T01:27:46.645Z,3.3
2022-10-25T01:28:55.072Z,2.5
2022-10-25T01:30:03.400Z,2.5
2022-10-25T01:31:11.713Z,2.5
2022-10-25T01:32:20.249Z,2.6
2022-10-25T01:33:28.569Z,2.6
2022-10-25T01:34:36.888Z,2.6
2022-10-25T01:35:45.441Z,3
2022-10-25T01:36:53.753Z,3
2022-10-25T01:38:02.082Z,3
2022-10-25T01:39:10.614Z,2.5
2022-10-25T01:40:18.922Z,2.5
2022-10-25T01:41:27.290Z,2.5
2022-10-25T01:42:35.824Z,3.1
2022-10-25T01:43:44.172Z,3.1
2022-10-25T01:44:52.524Z,3.1
2022-10-25T01:46:01.050Z,2.6
2022-10-25T01:47:09.363Z,2.6
2022-10-25T01:48:17.688Z,2.6
2022-10-25T01:49:26.238Z,2.7
2022-10-25T01:50:34.561Z,2.7
2022-10-25T01:51:42.884Z,2.7
2022-10-25T01:52:51.434Z,2.9
2022-10-25T01:53:59.739Z,2.9
2022-10-25T01:55:08.075Z,2.9
2022-10-25T01:56:16.593Z,3.2
2022-10-25T01:57:24.966Z,3.2
2022-10-25T01:58:33.262Z,3.2
2022-10-25T01:59:41.795Z,2.6
2022-10-25T02:00:50.144Z,2.6
2022-10-25T02:01:58.419Z,2.6
2022-10-25T02:03:06.956Z,2.9
2022-10-25T02:04:15.276Z,2.9
2022-10-25T02:05:23.594Z,2.9
2022-10-25T02:06:32.116Z,2.5
2022-10-25T02:07:40.423Z,2.5
2022-10-25T02:08:48.748Z,2.5
2022-10-25T02:09:57.292Z,2.1
2022-10-25T02:11:05.587Z,2.1
2022-10-25T02:12:13.926Z,2.1
2022-10-25T02:13:22.474Z,2.1
2022-10-25T02:14:30.780Z,2.1
2022-10-25T02:15:39.133Z,2.1
2022-10-25T02:16:47.651Z,2.3
2022-10-25T02:17:55.981Z,2.3
2022-10-25T02:19:04.309Z,2.3
2022-10-25T02:20:12.837Z,2.2
2022-10-25T02:21:21.158Z,2.2
2022-10-25T02:22:29.468Z,2.2
2022-10-25T02:23:38.006Z,2.3
2022-10-25T02:24:46.333Z,2.3
2022-10-25T02:25:54.652Z,2.3
2022-10-25T02:27:03.161Z,2.5
2022-10-25T02:28:11.489Z,2.5
2022-10-25T02:29:19.838Z,2.5
2022-10-25T02:30:28.373Z,2.3
2022-10-25T02:31:36.689Z,2.3
2022-10-25T02:32:45.009Z,2.3
2022-10-25T02:33:53.552Z,2.1
2022-10-25T02:35:01.905Z,2.1
2022-10-25T02:36:10.193Z,2.1
2022-10-25T02:37:18.723Z,2.3
2022-10-25T02:38:27.053Z,2.3
2022-10-25T02:39:35.367Z,2.3
2022-10-25T02:40:43.887Z,2.7
2022-10-25T02:41:52.206Z,2.7
2022-10-25T02:43:00.525Z,2.7
2022-10-25T02:44:09.060Z,1.9
2022-10-25T02:45:17.437Z,1.9
2022-10-25T02:46:25.717Z,1.9
2022-10-25T02:47:34.245Z,2.3
2022-10-25T02:48:42.577Z,2.3
2022-10-25T02:49:50.896Z,2.3
2022-10-25T02:50:59.416Z,2.1
2022-10-25T02:52:07.738Z,2.1
2022-10-25T02:53:16.083Z,2.1
2022-10-25T02:54:24.602Z,2.1
2022-10-25T02:55:32.918Z,2.1
2022-10-25T02:56:41.233Z,2.1
2022-10-25T02:57:49.771Z,2
2022-10-25T02:58:58.098Z,2
2022-10-25T03:00:06.475Z,2
2022-10-25T03:01:15.093Z,2.2
2022-10-25T03:02:23.245Z,2.2
2022-10-25T03:03:31.603Z,2.2
2022-10-25T03:04:40.121Z,2.1
2022-10-25T03:05:48.440Z,2.1
2022-10-25T03:06:56.812Z,2.1
2022-10-25T03:08:05.294Z,2.4
2022-10-25T03:09:13.608Z,2.4
2022-10-25T03:10:21.943Z,2.4
2022-10-25T03:11:30.479Z,2.2
2022-10-25T03:12:38.795Z,2.2
2022-10-25T03:13:47.134Z,2.2
2022-10-25T03:14:55.652Z,1.9
2022-10-25T03:16:03.970Z,1.9
2022-10-25T03:17:12.316Z,1.9
2022-10-25T03:18:20.811Z,1.9
2022-10-25T03:19:29.128Z,1.9
2022-10-25T03:20:37.457Z,1.9
2022-10-25T03:21:45.980Z,2.4
2022-10-25T03:22:54.297Z,2.4
2022-10-25T03:24:02.608Z,2.4
2022-10-25T03:25:11.134Z,2.3
2022-10-25T03:26:19.454Z,2.3
2022-10-25T03:27:27.778Z,2.3
2022-10-25T03:28:36.321Z,2.2
2022-10-25T03:29:44.650Z,2.2
2022-10-25T03:30:52.960Z,2.2
2022-10-25T03:32:01.533Z,2.1
2022-10-25T03:33:09.885Z,2.1
2022-10-25T03:34:18.178Z,2.1
2022-10-25T03:35:26.699Z,1.9
2022-10-25T03:36:35.015Z,1.9
2022-10-25T03:37:43.517Z,1.9
2022-10-25T03:38:51.864Z,2
2022-10-25T03:40:00.174Z,2
2022-10-25T03:41:08.495Z,2
2022-10-25T03:42:17.020Z,2.2
2022-10-25T03:43:25.346Z,2.2
2022-10-25T03:44:33.675Z,2.2
2022-10-25T03:45:42.199Z,2.3
2022-10-25T03:46:50.515Z,2.3
2022-10-25T03:47:58.836Z,2.3
2022-10-25T03:49:07.398Z,2.5
2022-10-25T03:50:15.674Z,2.5
2022-10-25T03:51:23.988Z,2.5
2022-10-25T03:52:32.507Z,3.1
2022-10-25T03:53:40.849Z,3.1
2022-10-25T03:54:49.182Z,3.1
2022-10-25T03:55:57.715Z,3
2022-10-25T03:57:06.033Z,3
2022-10-25T03:58:14.354Z,3
2022-10-25T03:59:22.920Z,2.5
2022-10-25T04:00:31.277Z,2.5
2022-10-25T04:01:39.606Z,2.5
2022-10-25T04:02:48.138Z,3.1
2022-10-25T04:03:56.425Z,3.1
2022-10-25T04:05:04.767Z,3.1
2022-10-25T04:06:13.271Z,3.4
2022-10-25T04:07:21.590Z,3.4
2022-10-25T04:08:29.908Z,3.4
2022-10-25T04:09:38.432Z,2.9
2022-10-25T04:10:46.742Z,2.9
2022-10-25T04:11:55.059Z,2.9
2022-10-25T04:13:03.592Z,3.1
2022-10-25T04:14:11.912Z,3.1
2022-10-25T04:15:20.228Z,3.1
2022-10-25T04:16:28.755Z,2.3
2022-10-25T04:17:37.400Z,2.3
2022-10-25T04:18:45.724Z,2.3
2022-10-25T04:19:54.267Z,2.5
2022-10-25T04:21:02.611Z,2.5
2022-10-25T04:22:10.906Z,2.5
2022-10-25T04:23:19.436Z,2.5
2022-10-25T04:24:27.766Z,2.5
2022-10-25T04:25:36.099Z,2.5
2022-10-25T04:26:44.639Z,2.5
2022-10-25T04:27:52.956Z,2.5
2022-10-25T04:29:01.278Z,2.5
2022-10-25T04:30:09.808Z,2.7
2022-10-25T04:31:18.131Z,2.7
2022-10-25T04:32:26.451Z,2.7
2022-10-25T04:33:34.975Z,2.9
2022-10-25T04:34:43.310Z,2.9
2022-10-25T04:35:51.623Z,2.9
2022-10-25T04:37:00.174Z,3
2022-10-25T04:38:08.486Z,3
2022-10-25T04:39:16.804Z,3
2022-10-25T04:40:25.329Z,2.9
2022-10-25T04:41:33.655Z,2.9
2022-10-25T04:42:41.988Z,2.9
2022-10-25T04:43:50.522Z,3.1
2022-10-25T04:44:58.841Z,3.1
2022-10-25T04:46:07.155Z,3.1
2022-10-25T04:47:15.704Z,2.6
2022-10-25T04:48:24.038Z,2.6
2022-10-25T04:49:32.366Z,2.6
2022-10-25T04:50:40.900Z,3.1
2022-10-25T04:51:49.226Z,3.1
2022-10-25T04:52:57.578Z,3.1
2022-10-25T04:54:06.094Z,3.7
2022-10-25T04:55:14.436Z,3.7
2022-10-25T04:56:22.741Z,3.7
2022-10-25T04:57:31.339Z,3.1
2022-10-25T04:58:39.663Z,3.1
2022-10-25T04:59:47.992Z,3.1
2022-10-25T05:00:56.548Z,3.1
2022-10-25T05:02:04.869Z,3.1
2022-10-25T05:03:13.323Z,3.1
2022-10-25T05:04:21.699Z,3.1
2022-10-25T05:05:30.030Z,3.1
2022-10-25T05:06:38.364Z,3.1
2022-10-25T05:07:46.896Z,3.3
2022-10-25T05:08:55.247Z,3.3
2022-10-25T05:10:03.544Z,3.3
2022-10-25T05:11:12.089Z,2.6
2022-10-25T05:12:20.411Z,2.6
2022-10-25T05:13:28.750Z,2.6
2022-10-25T05:14:37.262Z,3.1
2022-10-25T05:15:45.589Z,3.1
2022-10-25T05:16:53.912Z,3.1
2022-10-25T05:18:02.439Z,3.2
2022-10-25T05:19:10.761Z,3.2
2022-10-25T05:20:19.076Z,3.2
2022-10-25T05:22:35.933Z,3.2
2022-10-25T05:23:44.296Z,3.2
2022-10-25T05:24:52.836Z,3.7
2022-10-25T05:26:01.127Z,3.7
2022-10-25T05:27:09.453Z,3.7
2022-10-25T05:28:17.996Z,3.6
2022-10-25T05:29:26.301Z,3.6
2022-10-25T05:30:34.638Z,3.6
2022-10-25T05:31:43.212Z,3.6
2022-10-25T05:32:51.511Z,3.6
2022-10-25T05:33:59.844Z,3.6
2022-10-25T05:35:08.387Z,3.1
2022-10-25T05:36:16.701Z,3.1
2022-10-25T05:37:25.027Z,3.1
2022-10-25T05:38:35.594Z,3
2022-10-25T05:39:41.863Z,3
2022-10-25T05:40:50.304Z,3
2022-10-25T05:41:58.739Z,3.1
2022-10-25T05:43:07.073Z,3.1
2022-10-25T05:44:15.407Z,3.1
2022-10-25T05:45:23.960Z,3.1
2022-10-25T05:46:32.332Z,3.1
2022-10-25T05:47:40.658Z,3.1
2022-10-25T05:48:49.372Z,3.5
2022-10-25T05:49:57.506Z,3.5
2022-10-25T05:51:08.555Z,3.5
2022-10-25T05:52:14.366Z,3.4
2022-10-25T05:53:22.685Z,3.4
2022-10-25T05:54:31.026Z,3.4
2022-10-25T05:55:39.571Z,3.3
2022-10-25T05:56:47.908Z,3.3
2022-10-25T05:57:56.200Z,3.3
2022-10-25T05:59:04.724Z,3.4
2022-10-25T06:00:13.080Z,3.4
2022-10-25T06:01:21.472Z,3.4
2022-10-25T06:02:29.961Z,2.7
2022-10-25T06:03:38.249Z,2.7
2022-10-25T06:04:50.162Z,2.7
2022-10-25T06:05:55.117Z,3
2022-10-25T06:07:03.451Z,3
2022-10-25T06:08:11.771Z,3
2022-10-25T06:09:20.292Z,2.5
2022-10-25T06:10:28.685Z,2.5
2022-10-25T06:11:36.949Z,2.5
2022-10-25T06:12:45.843Z,2.7
2022-10-25T06:13:53.829Z,2.7
2022-10-25T06:15:02.154Z,2.7
2022-10-25T06:16:10.689Z,2.8
2022-10-25T06:17:19.012Z,2.8
2022-10-25T06:18:27.329Z,2.8
2022-10-25T06:19:35.865Z,3.2
2022-10-25T06:20:44.190Z,3.2
2022-10-25T06:21:52.509Z,3.2
2022-10-25T06:23:01.048Z,2.7
2022-10-25T06:24:09.370Z,2.7
2022-10-25T06:25:17.713Z,2.7
2022-10-25T06:26:26.239Z,3.6
2022-10-25T06:27:34.573Z,3.6
2022-10-25T06:28:42.897Z,3.6
2022-10-25T06:29:51.396Z,3.6
2022-10-25T06:30:59.769Z,3.6
2022-10-25T06:32:08.088Z,3.6
2022-10-25T06:33:16.683Z,3.6
2022-10-25T06:34:25.025Z,3.6
2022-10-25T06:35:33.353Z,3.6
2022-10-25T06:36:42.079Z,3.5
2022-10-25T06:37:50.591Z,3.5
2022-10-25T06:39:03.496Z,3.5
2022-10-25T06:40:07.521Z,3.3
2022-10-25T06:41:15.868Z,3.3
2022-10-25T06:42:24.215Z,3.3
2022-10-25T06:43:32.754Z,4.2
2022-10-25T06:44:41.103Z,4.2
2022-10-25T06:45:49.408Z,4.2
2022-10-25T06:47:16.249Z,3.2
2022-10-25T06:48:06.647Z,3.2
2022-10-25T06:49:14.871Z,3.2
2022-10-25T06:50:23.435Z,3.3
2022-10-25T06:51:31.910Z,3.3
2022-10-25T06:52:40.223Z,3.3
2022-10-25T06:53:48.951Z,3.7
2022-10-25T06:54:57.377Z,3.7
2022-10-25T06:56:06.060Z,3.7
2022-10-25T06:57:14.282Z,3.6
2022-10-25T06:58:22.706Z,3.6
2022-10-25T06:59:31.320Z,3.6
2022-10-25T07:00:39.900Z,3.5
2022-10-25T07:01:48.641Z,3.5
2022-10-25T07:02:56.877Z,3.5
2022-10-25T07:04:05.415Z,3.1
2022-10-25T07:05:13.761Z,3.1
2022-10-25T07:06:22.096Z,3.1
2022-10-25T07:07:30.613Z,3.3
2022-10-25T07:08:38.942Z,3.3
2022-10-25T07:09:47.263Z,3.3
2022-10-25T07:10:56.036Z,3
2022-10-25T07:12:07.677Z,3
2022-10-25T07:13:12.845Z,3
2022-10-25T07:14:21.374Z,3.3
2022-10-25T07:15:29.715Z,3.3
2022-10-25T07:16:38.058Z,3.3
2022-10-25T07:17:46.902Z,2.8
2022-10-25T07:18:54.876Z,2.8
2022-10-25T07:20:03.209Z,2.8
2022-10-25T07:21:11.740Z,3.6
2022-10-25T07:22:20.045Z,3.6
2022-10-25T07:23:28.364Z,3.6
2022-10-25T07:24:36.882Z,2.2
2022-10-25T07:25:45.238Z,2.2
2022-10-25T07:26:53.610Z,2.2
2022-10-25T07:28:02.157Z,2.5
2022-10-25T07:29:10.490Z,2.5
2022-10-25T07:30:18.841Z,2.5
2022-10-25T07:31:27.357Z,2.7
2022-10-25T07:32:38.821Z,2.7
2022-10-25T07:33:44.010Z,2.7
2022-10-25T07:34:52.562Z,3.2
2022-10-25T07:36:10.909Z,3.2
2022-10-25T07:37:09.196Z,3.2
2022-10-25T07:38:17.713Z,2.8
2022-10-25T07:39:26.028Z,2.8
2022-10-25T07:40:34.362Z,2.8
2022-10-25T07:41:42.883Z,2.8
2022-10-25T07:42:51.211Z,2.8
2022-10-25T07:43:59.538Z,2.8
2022-10-25T07:45:08.071Z,2.5
2022-10-25T07:46:16.384Z,2.5
2022-10-25T07:47:24.718Z,2.5
2022-10-25T07:48:33.272Z,2.5
2022-10-25T07:49:41.593Z,2.5
2022-10-25T07:50:49.923Z,2.5
2022-10-25T07:51:58.440Z,2.3
2022-10-25T07:53:06.758Z,2.3
2022-10-25T07:54:15.094Z,2.3
2022-10-25T07:55:23.627Z,2.6
2022-10-25T07:56:31.974Z,2.6
2022-10-25T07:57:40.302Z,2.6
2022-10-25T07:58:48.826Z,2.3
2022-10-25T07:59:57.163Z,2.3
2022-10-25T08:01:05.568Z,2.3
2022-10-25T08:02:14.017Z,2.2
2022-10-25T08:03:22.373Z,2.2
2022-10-25T08:05:39.197Z,2.6
2022-10-25T08:06:47.533Z,2.6
2022-10-25T08:07:55.865Z,2.6
2022-10-25T08:09:09.593Z,2.6
2022-10-25T08:10:12.713Z,2.6
2022-10-25T08:11:21.033Z,2.6
2022-10-25T08:12:29.555Z,2.5
2022-10-25T08:13:37.875Z,2.5
2022-10-25T08:14:47.589Z,2.5
2022-10-25T08:15:54.758Z,2.5
2022-10-25T08:17:03.073Z,2.5
2022-10-25T08:18:11.419Z,2.5
2022-10-25T08:19:19.963Z,2.7
2022-10-25T08:20:43.258Z,2.7
2022-10-25T08:21:36.613Z,2.7
2022-10-25T08:22:45.140Z,3
2022-10-25T08:23:53.458Z,3
2022-10-25T08:25:01.785Z,3
2022-10-25T08:26:10.335Z,3
2022-10-25T08:27:18.661Z,3
2022-10-25T08:28:26.984Z,3
2022-10-25T08:29:35.538Z,3
2022-10-25T08:30:43.848Z,3
2022-10-25T08:31:52.191Z,3
2022-10-25T08:33:00.694Z,3.3
2022-10-25T08:34:09.046Z,3.3
2022-10-25T08:35:17.352Z,3.3
2022-10-25T08:36:25.913Z,3
2022-10-25T08:37:34.205Z,3
2022-10-25T08:38:42.520Z,3
2022-10-25T08:39:52.277Z,3.2
2022-10-25T08:40:59.381Z,3.2
2022-10-25T08:42:07.695Z,3.2
2022-10-25T08:43:16.217Z,3.4
2022-10-25T08:44:24.541Z,3.4
2022-10-25T08:45:32.854Z,3.4
2022-10-25T08:46:41.383Z,3.6
2022-10-25T08:47:49.981Z,3.6
2022-10-25T08:48:58.046Z,3.6
2022-10-25T08:50:06.587Z,3.6
2022-10-25T08:51:14.911Z,3.6
2022-10-25T08:52:23.253Z,3.6
2022-10-25T08:53:31.761Z,3.3
2022-10-25T08:54:40.081Z,3.3
2022-10-25T08:55:59.073Z,3.3
2022-10-25T08:57:14.207Z,2.7
2022-10-25T08:58:05.279Z,2.7
2022-10-25T08:59:13.617Z,2.7
2022-10-25T09:00:22.182Z,2.8
2022-10-25T09:01:30.585Z,2.8
2022-10-25T09:02:38.828Z,2.8
2022-10-25T09:03:47.358Z,3
2022-10-25T09:04:55.691Z,3
2022-10-25T09:06:04.022Z,3
2022-10-25T09:07:12.548Z,3.6
2022-10-25T09:08:20.885Z,3.6
2022-10-25T09:09:29.193Z,3.6
2022-10-25T09:10:37.725Z,3.4
2022-10-25T09:11:46.050Z,3.4
2022-10-25T09:12:54.400Z,3.4
2022-10-25T09:14:02.937Z,2.8
2022-10-25T09:15:11.255Z,2.8
2022-10-25T09:16:19.565Z,2.8
2022-10-25T09:17:28.082Z,3.2
2022-10-25T09:18:36.421Z,3.2
2022-10-25T09:19:44.735Z,3.2
2022-10-25T09:20:53.260Z,3.1
2022-10-25T09:22:01.582Z,3.1
2022-10-25T09:23:09.938Z,3.1
2022-10-25T09:24:18.459Z,2.9
2022-10-25T09:25:26.762Z,2.9
2022-10-25T09:26:35.092Z,2.9
2022-10-25T09:27:43.780Z,2.5
2022-10-25T09:28:51.961Z,2.5
2022-10-25T09:30:02.550Z,2.5
2022-10-25T09:31:08.802Z,2.8
2022-10-25T09:32:17.128Z,2.8
2022-10-25T09:33:25.464Z,2.8
2022-10-25T09:34:33.984Z,2.5
2022-10-25T09:35:42.302Z,2.5
2022-10-25T09:36:50.627Z,2.5
2022-10-25T09:37:59.169Z,2.9
2022-10-25T09:39:08.820Z,2.9
2022-10-25T09:40:15.849Z,2.9
2022-10-25T09:41:24.358Z,2.4
2022-10-25T09:42:32.685Z,2.4
2022-10-25T09:43:41.052Z,2.4
2022-10-25T09:44:49.536Z,2.5
2022-10-25T09:45:57.869Z,2.5
2022-10-25T09:47:06.188Z,2.5
2022-10-25T09:48:14.748Z,2.1
2022-10-25T09:49:23.062Z,2.1
2022-10-25T09:50:31.399Z,2.1
2022-10-25T09:51:39.939Z,1.9
2022-10-25T09:52:48.295Z,1.9
2022-10-25T09:53:56.577Z,1.9
2022-10-25T09:55:05.098Z,2.1
2022-10-25T09:56:13.470Z,2.1
2022-10-25T09:57:21.767Z,2.1
2022-10-25T09:58:30.292Z,2.2
2022-10-25T09:59:38.599Z,2.2
2022-10-25T10:00:46.913Z,2.2
2022-10-25T10:01:55.551Z,2.2
2022-10-25T10:03:03.814Z,2.2
2022-10-25T10:04:12.082Z,2.2
2022-10-25T10:05:20.608Z,2.2
2022-10-25T10:06:28.917Z,2.2
2022-10-25T10:07:37.278Z,2.2
2022-10-25T10:08:45.779Z,2.8
2022-10-25T10:09:54.086Z,2.8
2022-10-25T10:11:02.403Z,2.8
2022-10-25T10:12:10.976Z,3.5
2022-10-25T10:13:19.247Z,3.5
2022-10-25T10:14:27.574Z,3.5
2022-10-25T10:15:36.095Z,4
2022-10-25T10:16:44.423Z,4
2022-10-25T10:17:52.748Z,4
2022-10-25T10:19:01.262Z,1.9
2022-10-25T10:20:09.575Z,1.9
2022-10-25T10:21:17.896Z,1.9
2022-10-25T10:22:26.426Z,2.4
2022-10-25T10:23:34.735Z,2.4
2022-10-25T10:24:43.078Z,2.4
2022-10-25T10:25:51.588Z,2.9
2022-10-25T10:26:59.925Z,2.9
2022-10-25T10:28:08.325Z,2.9
2022-10-25T10:29:17.801Z,2.6
2022-10-25T10:30:25.108Z,2.6
2022-10-25T10:31:33.405Z,2.6
2022-10-25T10:32:41.993Z,4
2022-10-25T10:33:50.246Z,4
2022-10-25T10:34:58.550Z,4
2022-10-25T10:36:07.072Z,4.3
2022-10-25T10:37:15.397Z,4.3
2022-10-25T10:38:23.712Z,4.3
2022-10-25T10:39:32.237Z,2.4
2022-10-25T10:41:02.034Z,2.4
2022-10-25T10:42:15.408Z,2.4
2022-10-25T10:43:25.260Z,2.7
2022-10-25T10:44:34.032Z,2.7
2022-10-25T10:45:42.362Z,2.7
2022-10-25T10:46:50.893Z,2
2022-10-25T10:47:59.196Z,2
2022-10-25T10:49:07.547Z,2
2022-10-25T10:50:16.033Z,1.8
2022-10-25T10:51:42.835Z,1.8
2022-10-25T10:52:32.674Z,1.8
2022-10-25T10:53:41.192Z,1.6
2022-10-25T10:54:49.514Z,1.6
2022-10-25T10:55:57.842Z,1.6
2022-10-25T10:57:06.369Z,1.9
2022-10-25T10:58:14.694Z,1.9
2022-10-25T10:59:23.033Z,1.9
2022-10-25T11:00:31.530Z,2.3
2022-10-25T11:01:39.929Z,2.3
2022-10-25T11:02:48.628Z,2.3
2022-10-25T11:03:59.348Z,2.5
2022-10-25T11:05:05.011Z,2.5
2022-10-25T11:06:13.358Z,2.5
2022-10-25T11:07:21.869Z,5.4
2022-10-25T11:08:30.224Z,5.4
2022-10-25T11:09:38.527Z,5.4
2022-10-25T11:10:47.064Z,4
2022-10-25T11:11:55.395Z,4
2022-10-25T11:13:03.706Z,4
2022-10-25T11:14:12.245Z,2.6
2022-10-25T11:15:20.691Z,2.6
2022-10-25T11:16:28.878Z,2.6
2022-10-25T11:17:37.412Z,1.9
2022-10-25T11:18:45.739Z,1.9
2022-10-25T11:19:54.059Z,1.9
2022-10-25T11:21:02.586Z,1.9
2022-10-25T11:22:10.942Z,1.9
2022-10-25T11:23:19.246Z,1.9
2022-10-25T11:24:27.778Z,2.1
2022-10-25T11:25:36.094Z,2.1
2022-10-25T11:26:44.413Z,2.1
2022-10-25T11:27:52.934Z,2
2022-10-25T11:29:01.246Z,2
2022-10-25T11:30:09.711Z,2
2022-10-25T11:31:18.219Z,1.9
2022-10-25T11:32:26.511Z,1.9
2022-10-25T11:33:34.750Z,1.9
2022-10-25T11:34:43.279Z,3.4
2022-10-25T11:35:51.605Z,3.4
2022-10-25T11:36:59.934Z,3.4
2022-10-25T11:38:08.469Z,2.6
2022-10-25T11:39:16.782Z,2.6
2022-10-25T11:40:25.109Z,2.6
2022-10-25T11:41:33.653Z,2.4
2022-10-25T11:42:41.960Z,2.4
2022-10-25T11:43:50.278Z,2.4
2022-10-25T11:44:58.826Z,1.9
2022-10-25T11:46:07.127Z,1.9
2022-10-25T11:47:15.572Z,1.9
2022-10-25T11:48:23.990Z,3.9
2022-10-25T11:49:32.290Z,3.9
2022-10-25T11:50:40.613Z,3.9
2022-10-25T11:51:49.145Z,5.1
2022-10-25T11:52:57.734Z,5.1
2022-10-25T11:54:05.787Z,5.1
2022-10-25T11:55:14.302Z,2.9
2022-10-25T11:56:22.622Z,2.9
2022-10-25T11:57:30.957Z,2.9
2022-10-25T11:58:39.480Z,2.8
2022-10-25T11:59:47.801Z,2.8
2022-10-25T12:00:56.135Z,2.8
2022-10-25T12:02:04.656Z,1.9
2022-10-25T12:03:13.175Z,1.9
2022-10-25T12:04:24.268Z,1.9
2022-10-25T12:05:29.881Z,2.7
2022-10-25T12:06:38.222Z,2.7
2022-10-25T12:07:46.571Z,2.7
2022-10-25T12:08:55.085Z,2.2
2022-10-25T12:10:03.440Z,2.2
2022-10-25T12:11:12.802Z,2.2
2022-10-25T12:12:20.344Z,1.9
2022-10-25T12:13:28.658Z,1.9
2022-10-25T12:14:36.978Z,1.9
2022-10-25T12:15:45.535Z,2
2022-10-25T12:16:53.839Z,2
2022-10-25T12:18:02.156Z,2
2022-10-25T12:19:10.814Z,2
2022-10-25T12:20:18.990Z,2
2022-10-25T12:21:27.337Z,2
2022-10-25T12:22:35.876Z,1.5
2022-10-25T12:23:44.202Z,1.5
2022-10-25T12:24:52.517Z,1.5
2022-10-25T12:26:01.052Z,1.4
2022-10-25T12:27:09.371Z,1.4
2022-10-25T12:28:17.690Z,1.4
2022-10-25T12:29:26.198Z,1.4
2022-10-25T12:30:34.551Z,1.4
2022-10-25T12:31:42.924Z,1.4
2022-10-25T12:32:51.450Z,1.8
2022-10-25T12:33:59.765Z,1.8
2022-10-25T12:35:08.210Z,1.8
2022-10-25T12:36:16.626Z,1.6
2022-10-25T12:37:24.952Z,1.6
2022-10-25T12:38:33.260Z,1.6
2022-10-25T12:39:41.785Z,1.5
2022-10-25T12:40:50.106Z,1.5
2022-10-25T12:41:58.417Z,1.5
2022-10-25T12:43:06.929Z,2.4
2022-10-25T12:44:15.236Z,2.4
2022-10-25T12:45:23.561Z,2.4
2022-10-25T12:46:32.079Z,1.7
2022-10-25T12:47:40.394Z,1.7
2022-10-25T12:48:48.704Z,1.7
2022-10-25T12:49:57.262Z,1.4
2022-10-25T12:51:05.710Z,1.4
2022-10-25T12:52:13.933Z,1.4
2022-10-25T12:53:22.460Z,1.5
2022-10-25T12:54:30.786Z,1.5
2022-10-25T12:55:39.214Z,1.5
2022-10-25T12:56:47.748Z,2
2022-10-25T12:57:56.148Z,2
2022-10-25T12:59:04.474Z,2
2022-10-25T13:00:13.083Z,1.5
2022-10-25T13:01:21.497Z,1.5
2022-10-25T13:02:29.735Z,1.5
2022-10-25T13:03:38.289Z,4.8
2022-10-25T13:04:46.615Z,4.8
2022-10-25T13:05:54.974Z,4.8
2022-10-25T13:07:03.679Z,1.7
2022-10-25T13:08:11.928Z,1.7
2022-10-25T13:09:22.249Z,1.7
2022-10-25T13:10:28.857Z,1.9
2022-10-25T13:11:37.219Z,1.9
2022-10-25T13:12:45.825Z,1.9
2022-10-25T13:13:54.132Z,2.3
2022-10-25T13:15:02.496Z,2.3
2022-10-25T13:16:10.833Z,2.3
2022-10-25T13:17:19.379Z,1.3
2022-10-25T13:18:27.721Z,1.3
2022-10-25T13:19:53.353Z,1.3
2022-10-25T13:20:44.708Z,1.3
2022-10-25T13:21:53.326Z,1.3
2022-10-25T13:23:01.523Z,1.3
2022-10-25T13:24:09.968Z,1.7
2022-10-25T13:25:18.319Z,1.7
2022-10-25T13:26:26.659Z,1.7
2022-10-25T13:27:35.190Z,1.3
2022-10-25T13:28:43.530Z,1.3
2022-10-25T13:29:51.897Z,1.3
2022-10-25T13:31:00.463Z,1.4
2022-10-25T13:32:10.191Z,1.4
2022-10-25T13:33:17.158Z,1.4
2022-10-25T13:34:25.715Z,2.1
2022-10-25T13:35:34.060Z,2.1
2022-10-25T13:36:42.392Z,2.1
2022-10-25T13:37:50.995Z,2.1
2022-10-25T13:38:59.411Z,2.1
2022-10-25T13:40:07.684Z,2.1
2022-10-25T13:41:16.195Z,2.8
2022-10-25T13:42:24.506Z,2.8
2022-10-25T13:43:32.847Z,2.8
2022-10-25T13:44:41.388Z,2.6
2022-10-25T13:45:49.718Z,2.6
2022-10-25T13:46:58.059Z,2.6
2022-10-25T13:48:06.601Z,2.6
2022-10-25T13:49:14.934Z,2.6
2022-10-25T13:50:23.341Z,2.6
2022-10-25T13:51:31.868Z,1.2
2022-10-25T13:52:40.227Z,1.2
2022-10-25T13:53:48.611Z,1.2
2022-10-25T13:54:57.184Z,5.9
2022-10-25T13:56:05.513Z,5.9
2022-10-25T13:57:13.887Z,5.9
2022-10-25T13:58:22.425Z,3.4
2022-10-25T13:59:30.807Z,3.4
2022-10-25T14:00:39.186Z,3.4
2022-10-25T14:01:47.808Z,10.3
2022-10-25T14:02:56.039Z,10.3
2022-10-25T14:04:04.394Z,10.3
2022-10-25T14:05:12.959Z,6.9
2022-10-25T14:06:21.311Z,6.9
2022-10-25T14:07:29.650Z,6.9
2022-10-25T14:08:38.210Z,1.7
2022-10-25T14:09:46.561Z,1.7
2022-10-25T14:10:54.930Z,1.7
2022-10-25T14:12:05.579Z,2.7
2022-10-25T14:13:11.784Z,2.7
2022-10-25T14:14:20.144Z,2.7
2022-10-25T14:15:28.671Z,4.6
2022-10-25T14:16:37.057Z,4.6
2022-10-25T14:17:45.389Z,4.6
2022-10-25T14:18:53.939Z,4.3
2022-10-25T14:20:02.496Z,4.3
2022-10-25T14:21:10.665Z,4.3
2022-10-25T14:22:19.219Z,4.2
2022-10-25T14:23:27.594Z,4.2
2022-10-25T14:24:35.949Z,4.2
2022-10-25T14:25:44.527Z,3.7
2022-10-25T14:26:52.872Z,3.7
2022-10-25T14:28:01.194Z,3.7
2022-10-25T14:29:09.749Z,2.7
2022-10-25T14:30:18.076Z,2.7
2022-10-25T15:03:49.605Z,0
2022-10-25T15:04:57.906Z,0
2022-10-25T15:06:06.261Z,0
2022-10-25T15:07:14.827Z,2.1
2022-10-25T15:08:23.174Z,2.1
2022-10-25T15:09:46.909Z,2.1
2022-10-25T15:10:40.066Z,14.9
2022-10-25T15:11:48.430Z,14.9
2022-10-25T15:12:56.813Z,14.9
2022-10-25T15:14:05.406Z,2.7
2022-10-25T15:15:13.771Z,2.7
2022-10-25T15:16:22.113Z,2.7
2022-10-25T15:17:30.699Z,2.2
2022-10-25T15:18:39.000Z,2.2
2022-10-25T15:19:47.380Z,2.2
2022-10-25T15:20:59.063Z,4.4
2022-10-25T15:22:04.303Z,4.4
2022-10-25T15:23:12.647Z,4.4
2022-10-25T15:24:21.193Z,15
2022-10-25T15:25:29.558Z,15
2022-10-25T15:26:38.396Z,15
2022-10-25T15:27:46.553Z,14.7
2022-10-25T15:28:54.905Z,14.7
2022-10-25T15:30:03.308Z,14.7
2022-10-25T15:31:13.433Z,17.700001
2022-10-25T15:32:20.195Z,17.700001
2022-10-25T15:33:28.528Z,17.700001
2022-10-25T15:34:37.071Z,2.4
2022-10-25T15:35:45.453Z,2.4
2022-10-25T15:36:53.780Z,2.4
2022-10-25T15:38:02.332Z,16.6
2022-10-25T15:39:15.825Z,16.6
2022-10-25T15:40:19.025Z,16.6
2022-10-25T15:41:27.563Z,22.700001
2022-10-25T15:42:35.912Z,22.700001
2022-10-25T15:43:44.282Z,22.700001
2022-10-25T15:44:52.840Z,14.2
2022-10-25T15:46:01.198Z,14.2
2022-10-25T15:47:09.560Z,14.2
2022-10-25T15:48:18.101Z,24.200001
2022-10-25T15:49:26.526Z,24.200001
2022-10-25T15:50:34.819Z,24.200001
2022-10-25T15:51:43.447Z,86.599998
2022-10-25T15:52:51.786Z,86.599998
2022-10-25T15:54:00.131Z,86.599998
2022-10-25T15:55:08.704Z,68.900002
2022-10-25T15:56:17.058Z,68.900002
2022-10-25T15:57:25.393Z,68.900002
2022-10-25T15:58:33.929Z,49.099998
2022-10-25T15:59:42.287Z,49.099998
2022-10-25T16:00:50.681Z,49.099998
2022-10-25T16:01:59.210Z,14.7
2022-10-25T16:03:07.537Z,14.7
2022-10-25T16:04:15.926Z,14.7
2022-10-25T16:05:24.466Z,54.799999
2022-10-25T16:06:32.817Z,54.799999
2022-10-25T16:07:41.207Z,54.799999
2022-10-25T16:08:49.726Z,9.7
2022-10-25T16:09:58.080Z,9.7
2022-10-25T16:11:06.552Z,9.7
2022-10-25T16:12:14.970Z,3
2022-10-25T16:13:23.334Z,3
2022-10-25T16:14:31.648Z,3
2022-10-25T16:15:40.185Z,3.3